Time;durP1;ratioP1;P1;durP2;ratioP2;P2;SDS_P1;SDS_P2;PMS_P1;PMS_P2;Temp;Humidity;BMP_temperature;BMP_pressure;BME280_temperature;BME280_humidity;BME280_pressure;Samples;Min_cycle;Max_cycle;Signal;HPM_P1;HPM_P2
2022/05/05 00:00:20;;;;;;;;;;;;;;;9.45;100.00;96007.09;1030395;28;20000;-71
2022/05/05 00:00:50;;;;;;;;;;;;;;;9.47;100.00;96012.09;1030649;28;19914;-72
2022/05/05 00:01:21;;;;;;;;;;;;;;;9.47;100.00;96003.47;1028627;28;20756;-70
2022/05/05 00:01:51;;;;;;;;;;;;;;;9.48;100.00;96011.06;1030841;28;20386;-71
2022/05/05 00:02:22;;;;;;;;;;;;;;;9.48;100.00;96002.41;1030845;28;19921;-71
2022/05/05 00:02:52;;;;;;;;;;;;;;;9.48;100.00;96011.06;1030570;28;19913;-70
2022/05/05 00:03:22;;;;;;;;;;;;;;;9.48;100.00;96007.66;1030632;28;19965;-71
2022/05/05 00:03:53;;;;;;;;;;;;;;;9.48;100.00;95995.34;1030438;28;19910;-72
2022/05/05 00:04:23;;;;;;;;;;;;;;;9.49;100.00;96007.44;1030681;28;19987;-70
2022/05/05 00:04:53;;;;;;;;;;;;;;;9.49;100.00;95996.94;1030323;28;20402;-70
2022/05/05 00:05:24;;;;;;;;;;;;;;;9.48;100.00;96000.59;1034924;28;19910;-71
2022/05/05 00:05:57;;;;;;;;;;;;;;;9.48;100.00;96005.03;1038711;28;20415;-70
2022/05/05 00:06:27;;;;;;;;;;;;;;;9.47;100.00;96004.25;1038506;28;19931;-71
2022/05/05 00:06:57;;;;;;;;;;;;;;;9.45;100.00;96001.06;1034514;28;20460;-70
2022/05/05 00:07:28;;;;;;;;;;;;;;;9.46;100.00;96007.91;1031056;28;19918;-71
2022/05/05 00:07:58;;;;;;;;;;;;;;;9.47;100.00;96004.25;1034731;28;19961;-71
2022/05/05 00:08:30;;;;;;;;;;;;;;;9.47;100.00;96003.47;1029257;28;19920;-71
2022/05/05 00:09:00;;;;;;;;;;;;;;;9.45;100.00;96006.31;1034618;28;19956;-70
2022/05/05 00:09:31;;;;;;;;;;;;;;;9.45;100.00;96001.06;1033649;28;19925;-71
2022/05/05 00:14:23;;;;;;;;;;;;;;;9.47;100.00;95999.00;1030835;28;20074;-70
2022/05/05 00:14:59;;;;;;;;;;;;;;;9.52;100.00;96011.34;1035054;28;20040;-71
2022/05/05 00:15:29;;;;;;;;;;;;;;;9.51;100.00;96010.56;1035772;28;19914;-71
2022/05/05 00:15:59;;;;;;;;;;;;;;;9.49;100.00;96017.91;1038533;28;20271;-72
2022/05/05 00:16:30;;;;;;;;;;;;;;;9.49;100.00;96010.03;1036532;28;19922;-70
2022/05/05 00:17:02;;;;;;;;;;;;;;;9.50;100.00;96014.22;1035776;28;19914;-71
2022/05/05 00:17:34;;;;;;;;;;;;;;;9.51;100.00;96015.81;1030381;28;19905;-71
2022/05/05 00:18:04;;;;;;;;;;;;;;;9.50;100.00;96014.22;1035136;28;20783;-71
2022/05/05 00:18:34;;;;;;;;;;;;;;;9.50;100.00;96009.00;1038354;28;19920;-70
2022/05/05 00:19:06;;;;;;;;;;;;;;;9.49;100.00;96001.38;1039087;28;20065;-71
2022/05/05 00:19:37;;;;;;;;;;;;;;;9.49;100.00;96004.00;1042347;28;19919;-71
2022/05/05 00:20:07;;;;;;;;;;;;;;;9.50;100.00;96010.81;1037803;28;20541;-70
2022/05/05 00:20:37;;;;;;;;;;;;;;;9.49;100.00;96010.03;1038664;28;19913;-71
2022/05/05 00:21:08;;;;;;;;;;;;;;;9.49;100.00;96012.66;1038756;28;19909;-71
2022/05/05 00:21:38;;;;;;;;;;;;;;;9.50;100.00;96013.44;1039714;28;19913;-72
2022/05/05 00:22:09;;;;;;;;;;;;;;;9.50;100.00;96009.00;1038755;28;19909;-71
2022/05/05 00:22:39;;;;;;;;;;;;;;;9.49;100.00;96007.44;1038729;28;19909;-71
2022/05/05 00:23:10;;;;;;;;;;;;;;;9.47;100.00;96009.50;1038654;28;19944;-71
2022/05/05 00:23:40;;;;;;;;;;;;;;;9.46;100.00;96018.41;1034821;28;19913;-71
2022/05/05 00:24:12;;;;;;;;;;;;;;;9.47;100.00;96013.94;1034721;28;19906;-71
2022/05/05 00:24:42;;;;;;;;;;;;;;;9.48;100.00;96012.91;1030660;28;19917;-71
2022/05/05 00:25:12;;;;;;;;;;;;;;;9.48;100.00;96015.50;1030418;28;19992;-71
2022/05/05 00:25:43;;;;;;;;;;;;;;;9.49;100.00;96014.47;1030726;28;20407;-71
2022/05/05 00:26:13;;;;;;;;;;;;;;;9.30;100.00;95982.63;1030660;28;19914;-71
2022/05/05 00:26:43;;;;;;;;;;;;;;;9.48;100.00;96008.44;1035660;28;19948;-71
2022/05/05 00:27:14;;;;;;;;;;;;;;;9.48;100.00;96010.28;1034705;28;19902;-72
2022/05/05 00:27:44;;;;;;;;;;;;;;;9.47;100.00;96009.50;1034397;28;20303;-73
2022/05/05 00:28:14;;;;;;;;;;;;;;;9.47;100.00;96004.25;1034845;28;20592;-71
2022/05/05 00:28:45;;;;;;;;;;;;;;;9.44;100.00;96010.75;1027165;28;19914;-71
2022/05/05 00:29:15;;;;;;;;;;;;;;;9.45;100.00;96006.31;1031406;28;19921;-72
2022/05/05 00:29:48;;;;;;;;;;;;;;;9.46;100.00;96007.91;1034041;28;19937;-70
2022/05/05 00:30:19;;;;;;;;;;;;;;;9.47;100.00;96009.50;1034972;28;19961;-70
2022/05/05 00:30:49;;;;;;;;;;;;;;;9.47;100.00;96004.25;1034831;28;19906;-71
2022/05/05 00:31:19;;;;;;;;;;;;;;;9.47;100.00;96003.47;1034954;28;19918;-70
2022/05/05 00:31:50;;;;;;;;;;;;;;;9.48;100.00;96005.03;1034417;28;19909;-72
2022/05/05 00:32:20;;;;;;;;;;;;;;;9.50;100.00;96005.59;1033218;28;19901;-70
2022/05/05 00:32:52;;;;;;;;;;;;;;;9.49;100.00;96002.19;1034789;28;20021;-72
2022/05/05 00:33:22;;;;;;;;;;;;;;;9.50;100.00;96003.75;1034676;28;20546;-71
2022/05/05 00:33:52;;;;;;;;;;;;;;;9.49;100.00;96002.19;1031102;28;19918;-71
2022/05/05 00:34:23;;;;;;;;;;;;;;;9.50;100.00;96001.13;1026727;28;19914;-71
2022/05/05 00:34:53;;;;;;;;;;;;;;;9.50;100.00;96006.38;1026682;28;20502;-71
2022/05/05 00:35:23;;;;;;;;;;;;;;;9.50;100.00;96003.75;1027221;28;19918;-71
2022/05/05 00:35:53;;;;;;;;;;;;;;;9.51;100.00;96001.91;1030470;28;19925;-71
2022/05/05 00:36:24;;;;;;;;;;;;;;;9.50;100.00;95997.72;1032372;28;19964;-72
2022/05/05 00:36:54;;;;;;;;;;;;;;;9.49;100.00;96006.59;1031396;28;19910;-70
2022/05/05 00:37:25;;;;;;;;;;;;;;;9.51;100.00;96004.53;1036216;28;19913;-71
2022/05/05 00:37:55;;;;;;;;;;;;;;;9.51;100.00;96001.91;1034977;28;19914;-70
2022/05/05 00:38:25;;;;;;;;;;;;;;;9.51;100.00;96002.72;1034317;28;19921;-70
2022/05/05 00:38:56;;;;;;;;;;;;;;;9.51;100.00;96000.09;1034743;28;20314;-71
2022/05/05 00:39:26;;;;;;;;;;;;;;;9.52;100.00;96006.13;1034550;28;19909;-70
2022/05/05 00:39:56;;;;;;;;;;;;;;;9.51;100.00;95996.69;1030004;28;19976;-71
2022/05/05 00:40:26;;;;;;;;;;;;;;;9.51;100.00;96000.09;1034418;28;20280;-70
2022/05/05 00:40:57;;;;;;;;;;;;;;;9.51;100.00;95999.31;1034977;28;19921;-70
2022/05/05 00:41:30;;;;;;;;;;;;;;;9.52;100.00;95998.25;1034511;28;20001;-70
2022/05/05 00:42:01;;;;;;;;;;;;;;;9.52;100.00;96000.88;1031599;28;20426;-70
2022/05/05 00:42:31;;;;;;;;;;;;;;;9.52;100.00;96006.13;1030484;28;19914;-71
2022/05/05 00:43:02;;;;;;;;;;;;;;;9.51;100.00;96004.53;1030827;28;20442;-71
2022/05/05 00:43:33;;;;;;;;;;;;;;;9.50;100.00;96008.22;1030896;28;19906;-71
2022/05/05 00:44:04;;;;;;;;;;;;;;;9.49;100.00;96004.81;1030520;28;19910;-71
2022/05/05 00:44:34;;;;;;;;;;;;;;;9.48;100.00;96003.19;1030362;28;19957;-72
2022/05/05 00:45:04;;;;;;;;;;;;;;;9.49;100.00;96006.59;1034855;28;19955;-69
2022/05/05 00:45:35;;;;;;;;;;;;;;;9.48;100.00;96000.59;1034419;28;20284;-70
2022/05/05 00:46:05;;;;;;;;;;;;;;;9.47;100.00;96012.09;1034892;28;19978;-70
2022/05/05 00:46:35;;;;;;;;;;;;;;;9.49;100.00;96007.44;1038575;28;20502;-71
2022/05/05 00:47:07;;;;;;;;;;;;;;;9.51;100.00;96010.56;1038510;28;19913;-70
2022/05/05 00:47:37;;;;;;;;;;;;;;;9.49;100.00;96002.19;1031044;28;20164;-71
2022/05/05 00:48:08;;;;;;;;;;;;;;;9.50;100.00;96006.38;1026469;28;19914;-70
2022/05/05 00:48:42;;;;;;;;;;;;;;;9.50;100.00;96009.00;1018518;29;19979;-71
2022/05/05 00:49:14;;;;;;;;;;;;;;;9.50;100.00;96006.38;1023983;28;19918;-71
2022/05/05 00:49:49;;;;;;;;;;;;;;;9.49;100.00;96006.59;1025765;28;19944;-71
2022/05/05 00:50:20;;;;;;;;;;;;;;;9.48;100.00;96005.81;1022532;28;19985;-71
2022/05/05 00:50:50;;;;;;;;;;;;;;;9.48;100.00;96010.28;1023203;28;19910;-72
2022/05/05 00:51:21;;;;;;;;;;;;;;;9.45;100.00;96004.47;1026422;28;20479;-71
2022/05/05 00:51:51;;;;;;;;;;;;;;;9.45;100.00;96003.69;1022815;28;19922;-70
2022/05/05 00:52:21;;;;;;;;;;;;;;;9.45;100.00;95995.84;1022443;28;19910;-70
2022/05/05 00:52:52;;;;;;;;;;;;;;;9.42;100.00;95996.34;1018594;29;20733;-71
2022/05/05 00:53:22;;;;;;;;;;;;;;;9.43;100.00;95997.94;1022968;28;19919;-70
2022/05/05 00:53:54;;;;;;;;;;;;;;;9.43;100.00;96000.56;1026635;28;19918;-71
2022/05/05 00:54:24;;;;;;;;;;;;;;;9.41;100.00;95995.53;1027856;28;19914;-70
2022/05/05 00:54:55;;;;;;;;;;;;;;;9.40;100.00;95998.44;1035327;28;19953;-71
2022/05/05 00:55:25;;;;;;;;;;;;;;;9.41;100.00;95997.38;1027225;28;19988;-69
2022/05/05 00:55:56;;;;;;;;;;;;;;;9.40;100.00;95993.19;1030864;28;19945;-71
2022/05/05 00:56:26;;;;;;;;;;;;;;;9.40;100.00;95993.19;1027178;28;19906;-70
2022/05/05 00:56:57;;;;;;;;;;;;;;;9.40;100.00;95998.44;1023623;28;19915;-73
2022/05/05 00:57:27;;;;;;;;;;;;;;;9.39;100.00;95994.25;1035095;28;20569;-70
2022/05/05 00:58:01;;;;;;;;;;;;;;;9.38;100.00;96000.50;1033502;28;20473;-71
2022/05/05 00:58:31;;;;;;;;;;;;;;;9.37;100.00;95996.31;1031330;28;20294;-70
2022/05/05 00:59:01;;;;;;;;;;;;;;;9.35;100.00;95995.75;1027383;28;19950;-71
2022/05/05 00:59:32;;;;;;;;;;;;;;;9.36;100.00;95989.50;1027502;28;19914;-72
2022/05/05 01:00:02;;;;;;;;;;;;;;;9.36;100.00;95986.88;1035059;28;19928;-71
2022/05/05 01:00:32;;;;;;;;;;;;;;;9.36;100.00;95986.88;1039411;28;20416;-71
2022/05/05 01:01:04;;;;;;;;;;;;;;;9.36;100.00;95994.72;1027407;28;20300;-71
2022/05/05 01:01:34;;;;;;;;;;;;;;;9.36;100.00;95989.50;1023240;29;20372;-70
2022/05/05 01:02:05;;;;;;;;;;;;;;;9.36;100.00;95992.13;1023495;28;19922;-71
2022/05/05 01:02:38;;;;;;;;;;;;;;;9.36;100.00;95992.13;1023968;28;20280;-71
2022/05/05 01:03:09;;;;;;;;;;;;;;;9.35;100.00;95987.88;1035041;28;20033;-70
2022/05/05 01:03:39;;;;;;;;;;;;;;;9.35;100.00;95985.28;1031365;28;20429;-69
2022/05/05 01:04:10;;;;;;;;;;;;;;;9.35;100.00;95988.69;1032017;28;19906;-71
2022/05/05 01:04:41;;;;;;;;;;;;;;;9.35;100.00;95985.28;1031560;28;19910;-70
2022/05/05 01:05:12;;;;;;;;;;;;;;;9.37;100.00;95988.44;1035387;28;19909;-70
2022/05/05 01:05:43;;;;;;;;;;;;;;;9.35;100.00;95990.50;1035432;28;20536;-71
2022/05/05 01:06:16;;;;;;;;;;;;;;;9.35;100.00;95986.06;1035175;28;19917;-71
2022/05/05 01:06:47;;;;;;;;;;;;;;;9.35;100.00;95977.41;1032812;28;19920;-71
2022/05/05 01:07:21;;;;;;;;;;;;;;;9.36;100.00;95986.88;1035250;28;20537;-71
2022/05/05 01:07:52;;;;;;;;;;;;;;;9.34;100.00;95979.25;1031569;28;20630;-70
2022/05/05 01:08:22;;;;;;;;;;;;;;;9.35;100.00;95983.44;1030892;28;20020;-71
2022/05/05 01:08:52;;;;;;;;;;;;;;;9.35;100.00;95990.50;1031311;28;19909;-71
2022/05/05 01:09:22;;;;;;;;;;;;;;;9.34;100.00;95983.69;1035213;28;20004;-70
2022/05/05 01:09:53;;;;;;;;;;;;;;;9.34;100.00;95986.31;1032096;28;20285;-71
2022/05/05 01:10:26;;;;;;;;;;;;;;;9.34;100.00;95984.50;1031635;28;19913;-71
2022/05/05 01:10:56;;;;;;;;;;;;;;;9.34;100.00;95983.69;1036020;28;19906;-71
2022/05/05 01:11:28;;;;;;;;;;;;;;;9.34;100.00;95994.97;1032114;28;19910;-71
2022/05/05 01:11:58;;;;;;;;;;;;;;;9.35;100.00;95990.50;1031504;28;19917;-71
2022/05/05 01:12:33;;;;;;;;;;;;;;;9.35;100.00;95987.88;1031145;28;19956;-72
2022/05/05 01:13:03;;;;;;;;;;;;;;;9.35;100.00;95990.50;1031994;28;19918;-71
2022/05/05 01:13:37;;;;;;;;;;;;;;;9.35;100.00;95985.28;1036760;28;19910;-71
2022/05/05 01:14:07;;;;;;;;;;;;;;;9.34;100.00;95979.25;1043866;28;19908;-71
2022/05/05 01:14:38;;;;;;;;;;;;;;;9.34;100.00;95978.47;1039407;28;19910;-72
2022/05/05 01:15:09;;;;;;;;;;;;;;;9.34;100.00;95988.94;1039280;28;19909;-71
2022/05/05 01:15:41;;;;;;;;;;;;;;;9.35;100.00;95990.50;1031165;28;20374;-71
2022/05/05 01:16:11;;;;;;;;;;;;;;;9.34;100.00;95986.31;1027926;28;19933;-71
2022/05/05 01:16:42;;;;;;;;;;;;;;;9.35;100.00;95978.19;1024679;28;19956;-71
2022/05/05 01:17:12;;;;;;;;;;;;;;;9.35;100.00;95980.81;1024003;28;20014;-71
2022/05/05 01:17:43;;;;;;;;;;;;;;;9.35;100.00;95977.41;1027393;28;20467;-71
2022/05/05 01:18:16;;;;;;;;;;;;;;;9.35;100.00;95980.81;1028170;28;19914;-71
2022/05/05 01:18:47;;;;;;;;;;;;;;;9.35;100.00;95972.19;1035528;28;19977;-72
2022/05/05 01:19:17;;;;;;;;;;;;;;;9.35;100.00;95980.03;1035824;28;19914;-71
2022/05/05 01:19:47;;;;;;;;;;;;;;;9.35;100.00;95982.66;1038628;28;19913;-71
2022/05/05 01:20:18;;;;;;;;;;;;;;;9.36;100.00;95981.63;1039472;28;20376;-70
2022/05/05 01:20:49;;;;;;;;;;;;;;;9.35;100.00;95983.44;1035188;28;19902;-70
2022/05/05 01:21:19;;;;;;;;;;;;;;;9.34;100.00;95983.69;1026832;28;19911;-70
2022/05/05 01:21:57;;;;;;;;;;;;;;;9.34;100.00;95975.84;1029430;28;19914;-71
2022/05/05 01:22:29;;;;;;;;;;;;;;;9.35;100.00;95977.41;1032218;28;19964;-71
2022/05/05 01:23:02;;;;;;;;;;;;;;;9.36;100.00;95981.63;1032681;28;20020;-71
2022/05/05 01:23:33;;;;;;;;;;;;;;;9.35;100.00;95980.03;1032547;28;20569;-71
2022/05/05 01:24:03;;;;;;;;;;;;;;;9.36;100.00;95981.63;1031082;28;19917;-74
2022/05/05 01:28:41;;;;;;;;;;;;;;;9.35;100.00;95978.19;1042656;28;19924;-71
2022/05/05 01:29:12;;;;;;;;;;;;;;;9.34;100.00;95978.47;1035341;28;19912;-71
2022/05/05 01:29:42;;;;;;;;;;;;;;;9.34;100.00;95986.31;1030681;28;20029;-71
2022/05/05 01:30:12;;;;;;;;;;;;;;;9.35;100.00;95982.66;1026664;28;19910;-71
2022/05/05 01:30:46;;;;;;;;;;;;;;;9.35;100.00;95982.66;1027169;28;20000;-71
2022/05/05 01:31:17;;;;;;;;;;;;;;;9.35;100.00;95985.28;1023818;28;19915;-72
2022/05/05 01:31:47;;;;;;;;;;;;;;;9.35;100.00;95985.28;1028269;28;19910;-70
2022/05/05 01:32:17;;;;;;;;;;;;;;;9.35;100.00;95985.28;1037458;28;19905;-71
2022/05/05 01:32:48;;;;;;;;;;;;;;;9.34;100.00;95989.72;1035853;28;19909;-71
2022/05/05 01:33:19;;;;;;;;;;;;;;;9.34;100.00;95986.31;1039389;28;20382;-71
2022/05/05 01:33:49;;;;;;;;;;;;;;;9.34;100.00;95986.31;1034913;28;20004;-71
2022/05/05 01:34:20;;;;;;;;;;;;;;;9.33;100.00;95992.59;1035302;28;19910;-71
2022/05/05 01:34:50;;;;;;;;;;;;;;;9.33;100.00;95990.78;1039463;28;19920;-71
2022/05/05 01:35:20;;;;;;;;;;;;;;;9.33;100.00;95992.59;1039323;28;19909;-71
2022/05/05 01:35:54;;;;;;;;;;;;;;;9.34;100.00;95986.31;1035053;28;19913;-71
2022/05/05 01:36:25;;;;;;;;;;;;;;;9.33;100.00;95992.59;1034955;28;20410;-71
2022/05/05 01:36:55;;;;;;;;;;;;;;;9.34;100.00;95986.31;1034942;28;19937;-71
2022/05/05 01:37:27;;;;;;;;;;;;;;;9.35;100.00;95990.50;1031395;28;19910;-70
2022/05/05 01:37:57;;;;;;;;;;;;;;;9.34;100.00;95991.56;1035428;28;20108;-71
2022/05/05 01:38:35;;;;;;;;;;;;;;;9.35;100.00;95987.88;1035039;28;19921;-71
2022/05/05 01:39:06;;;;;;;;;;;;;;;9.35;100.00;95993.13;1027077;28;19914;-72
2022/05/05 01:39:36;;;;;;;;;;;;;;;9.35;100.00;95990.50;1026634;28;19930;-71
2022/05/05 01:40:06;;;;;;;;;;;;;;;9.36;100.00;95992.13;1027871;28;19914;-70
2022/05/05 01:40:37;;;;;;;;;;;;;;;9.35;100.00;95990.50;1032153;28;19961;-71
2022/05/05 01:41:08;;;;;;;;;;;;;;;9.34;100.00;95989.72;1031231;28;20012;-71
2022/05/05 01:41:38;;;;;;;;;;;;;;;9.34;100.00;95989.72;1039281;28;20016;-71
2022/05/05 01:42:08;;;;;;;;;;;;;;;9.35;100.00;95993.13;1041050;28;20502;-71
2022/05/05 01:42:44;;;;;;;;;;;;;;;9.36;100.00;95992.13;1038440;28;20484;-70
2022/05/05 01:43:15;;;;;;;;;;;;;;;9.35;100.00;95996.53;1035400;28;20528;-70
2022/05/05 01:43:45;;;;;;;;;;;;;;;9.35;100.00;95993.13;1036507;28;19921;-70
2022/05/05 01:44:18;;;;;;;;;;;;;;;9.36;100.00;95999.97;1040143;28;20510;-71
2022/05/05 01:44:49;;;;;;;;;;;;;;;9.35;100.00;95995.75;1039238;28;19919;-71
2022/05/05 01:45:19;;;;;;;;;;;;;;;9.35;100.00;96000.97;1026995;28;19906;-70
2022/05/05 01:45:58;;;;;;;;;;;;;;;9.36;100.00;96002.59;1027168;28;19992;-71
2022/05/05 01:46:29;;;;;;;;;;;;;;;9.36;100.00;95992.13;1019201;29;20014;-70
2022/05/05 01:46:59;;;;;;;;;;;;;;;9.36;100.00;96002.59;1021424;28;20035;-71
2022/05/05 01:47:29;;;;;;;;;;;;;;;9.37;100.00;96001.53;1030943;28;19941;-70
2022/05/05 01:47:59;;;;;;;;;;;;;;;9.36;100.00;96005.22;1027129;28;19914;-71
2022/05/05 01:48:30;;;;;;;;;;;;;;;9.36;100.00;96002.59;1026954;28;19953;-71
2022/05/05 01:49:00;;;;;;;;;;;;;;;9.36;100.00;95998.13;1027412;28;19913;-71
2022/05/05 01:49:30;;;;;;;;;;;;;;;9.36;100.00;95999.97;1023332;28;19921;-70
2022/05/05 01:50:01;;;;;;;;;;;;;;;9.36;100.00;96006.00;1026859;28;19941;-71
2022/05/05 01:50:31;;;;;;;;;;;;;;;9.37;100.00;96009.41;1032224;28;19957;-70
2022/05/05 01:51:04;;;;;;;;;;;;;;;9.36;100.00;96002.59;1035247;28;19917;-70
2022/05/05 01:51:35;;;;;;;;;;;;;;;9.36;100.00;96000.75;1040155;28;19959;-71
2022/05/05 01:52:08;;;;;;;;;;;;;;;9.37;100.00;96004.16;1043624;28;19975;-71
2022/05/05 01:52:39;;;;;;;;;;;;;;;9.36;100.00;95994.72;1034403;28;19906;-71
2022/05/05 01:53:09;;;;;;;;;;;;;;;9.36;100.00;96003.38;1031305;28;19909;-70
2022/05/05 01:53:39;;;;;;;;;;;;;;;9.36;100.00;95999.97;1031805;28;19964;-71
2022/05/05 01:54:10;;;;;;;;;;;;;;;9.35;100.00;96004.38;1031807;28;19905;-71
2022/05/05 01:54:40;;;;;;;;;;;;;;;9.36;100.00;95997.34;1032041;28;20347;-71
2022/05/05 01:55:12;;;;;;;;;;;;;;;9.35;100.00;95995.75;1030833;28;19906;-70
2022/05/05 01:55:42;;;;;;;;;;;;;;;9.36;100.00;96002.59;1032231;28;19906;-70
2022/05/05 01:56:12;;;;;;;;;;;;;;;9.36;100.00;96002.59;1031848;28;20390;-71
2022/05/05 01:56:43;;;;;;;;;;;;;;;9.36;100.00;95994.72;1031822;28;19910;-71
2022/05/05 01:57:13;;;;;;;;;;;;;;;9.35;100.00;96000.97;1031838;28;19902;-71
2022/05/05 01:57:43;;;;;;;;;;;;;;;9.35;100.00;95995.75;1039705;28;19971;-71
2022/05/05 01:58:13;;;;;;;;;;;;;;;9.34;100.00;95994.97;1035742;28;19912;-71
2022/05/05 01:58:44;;;;;;;;;;;;;;;9.35;100.00;95990.50;1040326;28;19909;-72
2022/05/05 01:59:14;;;;;;;;;;;;;;;9.35;100.00;95985.28;1035982;28;19906;-71
2022/05/05 01:59:45;;;;;;;;;;;;;;;9.35;100.00;96001.78;1033704;28;19918;-71
2022/05/05 02:00:15;;;;;;;;;;;;;;;9.34;100.00;95996.78;1035986;28;19952;-70
2022/05/05 02:00:45;;;;;;;;;;;;;;;9.35;100.00;95995.75;1036022;28;20441;-70
2022/05/05 02:01:16;;;;;;;;;;;;;;;9.34;100.00;95994.97;1041638;28;20420;-71
2022/05/05 02:01:46;;;;;;;;;;;;;;;9.34;100.00;95997.56;1039818;28;20000;-71
2022/05/05 02:02:16;;;;;;;;;;;;;;;9.34;100.00;95994.19;1036185;28;19910;-71
2022/05/05 02:02:47;;;;;;;;;;;;;;;9.33;100.00;95996.00;1040333;28;20690;-70
2022/05/05 02:03:17;;;;;;;;;;;;;;;9.34;100.00;95996.78;1031842;28;20004;-71
2022/05/05 02:03:48;;;;;;;;;;;;;;;9.33;100.00;96001.25;1035919;28;19906;-71
2022/05/05 02:04:18;;;;;;;;;;;;;;;9.33;100.00;96003.88;1036071;28;19912;-71
2022/05/05 02:04:50;;;;;;;;;;;;;;;9.32;100.00;95999.69;1027329;28;19910;-70
2022/05/05 02:05:20;;;;;;;;;;;;;;;9.32;100.00;95999.69;1031708;28;20017;-70
2022/05/05 02:05:51;;;;;;;;;;;;;;;9.32;100.00;96001.47;1027867;28;20303;-69
2022/05/05 02:06:21;;;;;;;;;;;;;;;9.32;100.00;96001.47;1029305;28;20367;-71
2022/05/05 02:06:51;;;;;;;;;;;;;;;9.31;100.00;96000.69;1032211;28;19902;-71
2022/05/05 02:07:22;;;;;;;;;;;;;;;9.33;100.00;96000.47;1036161;28;19901;-71
2022/05/05 02:07:52;;;;;;;;;;;;;;;9.34;100.00;96007.28;1035897;28;20590;-70
2022/05/05 02:08:22;;;;;;;;;;;;;;;9.34;100.00;95999.41;1036162;28;19914;-71
2022/05/05 02:08:52;;;;;;;;;;;;;;;9.34;100.00;96004.66;1031978;28;20604;-70
2022/05/05 02:09:23;;;;;;;;;;;;;;;9.33;100.00;96003.88;1032207;28;19914;-70
2022/05/05 02:09:53;;;;;;;;;;;;;;;9.33;100.00;96003.06;1030813;28;19921;-71
2022/05/05 02:10:24;;;;;;;;;;;;;;;9.32;100.00;96002.28;1027885;28;20005;-71
2022/05/05 02:10:55;;;;;;;;;;;;;;;9.32;100.00;96006.72;1028145;28;19914;-71
2022/05/05 02:11:26;;;;;;;;;;;;;;;9.31;100.00;96005.16;1028781;28;19906;-71
2022/05/05 02:12:05;;;;;;;;;;;;;;;9.30;100.00;96006.19;1034867;28;19988;-71
2022/05/05 02:12:36;;;;;;;;;;;;;;;9.28;100.00;96000.41;1040065;28;19935;-71
2022/05/05 02:13:06;;;;;;;;;;;;;;;9.28;100.00;96005.63;1039996;28;19909;-71
2022/05/05 02:13:37;;;;;;;;;;;;;;;9.25;100.00;96000.88;1036429;28;20339;-71
2022/05/05 02:14:08;;;;;;;;;;;;;;;9.24;100.00;96002.72;1027873;28;20311;-71
2022/05/05 02:14:38;;;;;;;;;;;;;;;9.23;100.00;95997.75;1027978;28;19910;-71
2022/05/05 02:15:09;;;;;;;;;;;;;;;9.24;100.00;96004.56;1027634;28;20554;-71
2022/05/05 02:15:39;;;;;;;;;;;;;;;9.24;100.00;96000.09;1032098;28;19935;-71
2022/05/05 02:16:09;;;;;;;;;;;;;;;9.22;100.00;96002.16;1036014;28;20010;-71
2022/05/05 02:16:40;;;;;;;;;;;;;;;9.23;100.00;96005.59;1035902;28;19910;-71
2022/05/05 02:17:10;;;;;;;;;;;;;;;9.21;100.00;96001.38;1035946;28;20284;-71
2022/05/05 02:17:44;;;;;;;;;;;;;;;9.23;100.00;96005.59;1040185;28;20063;-71
2022/05/05 02:18:15;;;;;;;;;;;;;;;9.23;100.00;96010.84;1035738;28;20043;-71
2022/05/05 02:18:46;;;;;;;;;;;;;;;9.24;100.00;96015.03;1032445;28;19910;-71
2022/05/05 02:19:16;;;;;;;;;;;;;;;9.23;100.00;96009.00;1036089;28;19909;-71
2022/05/05 02:19:46;;;;;;;;;;;;;;;9.24;100.00;96009.78;1035595;28;19914;-71
2022/05/05 02:20:17;;;;;;;;;;;;;;;9.23;100.00;96008.22;1036070;28;19914;-71
2022/05/05 02:20:47;;;;;;;;;;;;;;;9.23;100.00;96014.25;1035883;28;20409;-71
2022/05/05 02:21:18;;;;;;;;;;;;;;;9.24;100.00;96013.19;1036085;28;19923;-70
2022/05/05 02:21:48;;;;;;;;;;;;;;;9.24;100.00;96015.03;1035990;28;19980;-71
2022/05/05 02:22:18;;;;;;;;;;;;;;;9.23;100.00;96014.25;1035979;28;19914;-71
2022/05/05 02:22:49;;;;;;;;;;;;;;;9.23;100.00;96009.00;1035834;28;19956;-71
2022/05/05 02:23:19;;;;;;;;;;;;;;;9.23;100.00;96010.84;1036092;28;20402;-71
2022/05/05 02:23:49;;;;;;;;;;;;;;;9.21;100.00;96011.84;1031794;28;20009;-70
2022/05/05 02:24:19;;;;;;;;;;;;;;;9.21;100.00;96004.00;1032035;28;19925;-72
2022/05/05 02:24:50;;;;;;;;;;;;;;;9.21;100.00;96011.84;1031836;28;19917;-71
2022/05/05 02:25:21;;;;;;;;;;;;;;;9.23;100.00;96002.97;1035589;28;19924;-71
2022/05/05 02:25:53;;;;;;;;;;;;;;;9.23;100.00;96008.22;1036014;28;19920;-71
2022/05/05 02:26:23;;;;;;;;;;;;;;;9.20;100.00;96006.88;1032238;28;20334;-71
2022/05/05 02:26:53;;;;;;;;;;;;;;;9.02;100.00;95981.84;1031556;28;19960;-71
2022/05/05 02:27:27;;;;;;;;;;;;;;;9.17;100.00;96009.97;1032173;28;19981;-71
2022/05/05 02:27:57;;;;;;;;;;;;;;;9.17;100.00;96002.91;1032302;28;20000;-71
2022/05/05 02:28:27;;;;;;;;;;;;;;;9.16;100.00;96003.97;1035623;28;20275;-71
2022/05/05 02:28:58;;;;;;;;;;;;;;;9.15;100.00;96010.25;1036403;28;19924;-73
2022/05/05 02:29:28;;;;;;;;;;;;;;;9.15;100.00;96006.81;1039908;28;19991;-71
2022/05/05 02:29:58;;;;;;;;;;;;;;;9.15;100.00;96004.19;1035288;28;19968;-71
2022/05/05 02:30:29;;;;;;;;;;;;;;;9.14;100.00;96019.13;1035675;28;19928;-71
2022/05/05 02:30:59;;;;;;;;;;;;;;;9.14;100.00;96010.47;1035878;28;20477;-71
2022/05/05 02:31:29;;;;;;;;;;;;;;;9.13;100.00;96014.94;1036047;28;19921;-71
2022/05/05 02:31:59;;;;;;;;;;;;;;;9.12;100.00;96012.53;1039942;28;20301;-71
2022/05/05 02:32:33;;;;;;;;;;;;;;;9.11;100.00;96014.38;1031968;28;19922;-71
2022/05/05 02:33:03;;;;;;;;;;;;;;;9.10;100.00;96010.19;1031879;28;19929;-71
2022/05/05 02:33:33;;;;;;;;;;;;;;;9.10;100.00;96014.63;1032131;28;20478;-71
2022/05/05 02:34:08;;;;;;;;;;;;;;;9.08;100.00;96007.00;1032423;28;19929;-71
2022/05/05 02:34:39;;;;;;;;;;;;;;;9.07;100.00;96009.88;1031790;28;19940;-70
2022/05/05 02:35:09;;;;;;;;;;;;;;;9.05;100.00;96006.72;1028858;28;19932;-71
2022/05/05 02:35:42;;;;;;;;;;;;;;;9.04;100.00;96011.16;1032732;28;19921;-71
2022/05/05 02:38:46;;;;;;;;;;;;;;;9.03;100.00;96019.25;1035594;28;20579;-70
2022/05/05 02:39:17;;;;;;;;;;;;;;;9.01;100.00;96014.25;1033473;28;19924;-71
2022/05/05 02:39:47;;;;;;;;;;;;;;;9.00;100.00;96012.69;1032251;28;19922;-69
2022/05/05 02:40:17;;;;;;;;;;;;;;;9.02;100.00;96017.66;1031750;28;19977;-71
2022/05/05 02:40:48;;;;;;;;;;;;;;;9.03;100.00;96019.25;1036119;28;19922;-71
2022/05/05 02:41:21;;;;;;;;;;;;;;;9.03;100.00;96014.81;1035773;28;19918;-71
2022/05/05 02:41:52;;;;;;;;;;;;;;;9.02;100.00;96022.91;1039406;28;19917;-71
2022/05/05 02:42:22;;;;;;;;;;;;;;;9.02;100.00;96018.47;1039917;28;19921;-71
2022/05/05 02:42:55;;;;;;;;;;;;;;;9.01;100.00;96022.13;1027780;28;20526;-71
2022/05/05 02:43:26;;;;;;;;;;;;;;;9.01;100.00;96018.72;1019845;29;20568;-71
2022/05/05 02:43:56;;;;;;;;;;;;;;;9.01;100.00;96016.88;1024073;28;19927;-71
2022/05/05 02:44:26;;;;;;;;;;;;;;;9.01;100.00;96027.34;1028679;28;19957;-71
2022/05/05 02:44:57;;;;;;;;;;;;;;;9.02;100.00;96018.47;1036045;28;20504;-71
2022/05/05 02:45:27;;;;;;;;;;;;;;;8.99;100.00;96013.72;1039587;28;19952;-71
2022/05/05 02:45:57;;;;;;;;;;;;;;;8.98;100.00;96027.84;1035979;28;19917;-71
2022/05/05 02:46:27;;;;;;;;;;;;;;;8.96;100.00;96017.63;1036014;28;19921;-71
2022/05/05 02:47:00;;;;;;;;;;;;;;;8.95;100.00;96025.69;1035977;28;19945;-71
2022/05/05 02:47:30;;;;;;;;;;;;;;;8.93;100.00;96022.56;1043770;28;19916;-71
2022/05/05 02:48:01;;;;;;;;;;;;;;;8.92;100.00;96023.56;1040126;28;20266;-71
2022/05/05 02:48:31;;;;;;;;;;;;;;;8.92;100.00;96026.19;1039481;28;20027;-71
2022/05/05 02:49:04;;;;;;;;;;;;;;;8.91;100.00;96027.22;1039962;28;19924;-71
2022/05/05 02:49:35;;;;;;;;;;;;;;;8.89;100.00;96018.84;1035137;28;19940;-71
2022/05/05 02:50:06;;;;;;;;;;;;;;;8.89;100.00;96021.47;1035482;28;19916;-72
2022/05/05 02:50:36;;;;;;;;;;;;;;;8.86;100.00;96024.56;1028337;28;20310;-71
2022/05/05 02:51:07;;;;;;;;;;;;;;;8.85;100.00;96025.59;1032185;28;19938;-71
2022/05/05 02:51:37;;;;;;;;;;;;;;;8.81;100.00;96019.25;1031423;28;20005;-71
2022/05/05 02:52:08;;;;;;;;;;;;;;;8.78;100.00;96024.97;1031723;28;19981;-71